Time;durP1;ratioP1;P1;durP2;ratioP2;P2;SDS_P1;SDS_P2;PMS_P1;PMS_P2;Temp;Humidity;BMP_temperature;BMP_pressure;BME280_temperature;BME280_humidity;BME280_pressure;Samples;Min_cycle;Max_cycle;Signal;HPM_P1;HPM_P2
2021/08/18 00:03:55;;;;;;;15.40;7.82;;;;;;;13.66;87.66;101062.47;10173414;28;20069;-65
2021/08/18 00:08:52;;;;;;;20.67;8.55;;;;;;;13.65;87.97;101071.88;10198995;28;20128;-65
2021/08/18 00:13:49;;;;;;;20.05;9.15;;;;;;;13.60;87.93;101072.06;10193782;28;20073;-66
2021/08/18 00:18:49;;;;;;;17.08;9.77;;;;;;;13.57;89.00;101069.16;10183503;28;20080;-65
2021/08/18 00:23:45;;;;;;;20.33;9.80;;;;;;;13.56;88.91;101068.34;10190869;28;20125;-66
2021/08/18 00:28:42;;;;;;;17.70;9.68;;;;;;;13.55;89.27;101069.47;10175076;28;20050;-66
2021/08/18 00:33:39;;;;;;;20.83;9.98;;;;;;;13.54;89.44;101058.84;10188325;28;20050;-66
2021/08/18 00:38:37;;;;;;;104.68;13.18;;;;;;;13.51;89.51;101082.28;10195469;28;20065;-66
2021/08/18 00:43:33;;;;;;;21.38;9.57;;;;;;;13.52;89.71;101064.66;10197634;28;20069;-65
2021/08/18 00:48:30;;;;;;;16.25;9.40;;;;;;;13.55;89.89;101063.97;10187891;28;20070;-66
2021/08/18 00:53:27;;;;;;;17.98;10.00;;;;;;;13.56;90.35;101068.34;10197070;28;20133;-67
2021/08/18 00:58:25;;;;;;;17.42;9.65;;;;;;;13.61;90.22;101065.41;10183167;28;20085;-66
2021/08/18 01:03:21;;;;;;;18.75;10.32;;;;;;;13.61;90.10;101057.19;10189663;28;20073;-65
2021/08/18 01:08:18;;;;;;;21.38;9.75;;;;;;;13.65;89.73;101060.09;10195204;28;20152;-66
2021/08/18 01:13:14;;;;;;;15.23;9.25;;;;;;;13.63;89.82;101057.66;10186987;28;20464;-65
2021/08/18 01:18:11;;;;;;;22.25;10.32;;;;;;;13.62;89.94;101058.81;10195995;28;20132;-66
2021/08/18 01:23:10;;;;;;;19.10;10.20;;;;;;;13.69;89.71;101055.50;10192508;28;20065;-67
2021/08/18 01:28:08;;;;;;;12.68;7.68;;;;;;;13.69;89.40;101061.00;10195572;28;20503;-67
2021/08/18 01:33:11;;;;;;;15.00;8.15;;;;;;;13.68;89.34;101053.91;10173800;28;20046;-67
2021/08/18 01:38:13;;;;;;;19.17;9.82;;;;;;;13.60;89.49;101057.50;10182099;28;20562;-67
2021/08/18 01:43:10;;;;;;;16.02;8.18;;;;;;;13.59;89.86;101053.94;10172132;28;20133;-66
2021/08/18 01:48:12;;;;;;;15.45;8.90;;;;;;;13.61;89.79;101057.19;10194125;28;20073;-66
2021/08/18 01:53:10;;;;;;;17.42;8.45;;;;;;;13.61;89.58;101059.91;10194795;28;20042;-66
2021/08/18 01:58:14;;;;;;;14.88;8.35;;;;;;;13.58;89.56;101049.59;10176647;28;20500;-64
2021/08/18 02:03:10;;;;;;;16.63;8.55;;;;;;;13.60;89.37;101052.84;10168715;28;20570;-65
2021/08/18 02:08:07;;;;;;;17.83;9.15;;;;;;;13.57;89.25;101042.47;10192030;28;20052;-66
2021/08/18 02:13:03;;;;;;;15.75;8.10;;;;;;;13.47;89.28;101031.88;10166397;28;20566;-66
2021/08/18 02:18:01;;;;;;;13.95;9.02;;;;;;;13.40;89.54;101032.38;10188610;28;20046;-66
2021/08/18 02:22:58;;;;;;;14.57;8.50;;;;;;;13.40;89.73;101026.09;10194730;28;20061;-66
2021/08/18 02:27:55;;;;;;;19.23;9.68;;;;;;;13.31;89.90;101019.81;10182635;28;20072;-65
2021/08/18 02:32:52;;;;;;;16.45;9.48;;;;;;;13.29;90.60;101024.84;10202704;28;20480;-65
2021/08/18 02:37:51;;;;;;;17.45;8.43;;;;;;;13.28;90.03;101017.75;10201398;28;20041;-66
2021/08/18 02:42:49;;;;;;;13.43;8.77;;;;;;;13.21;90.28;101019.00;10196532;28;20540;-66
2021/08/18 02:47:48;;;;;;;15.20;9.55;;;;;;;13.15;90.57;100998.34;10201833;28;20045;-66
2021/08/18 02:52:45;;;;;;;16.63;10.00;;;;;;;13.17;90.91;100989.78;10178539;28;20069;-66
2021/08/18 02:57:41;;;;;;;14.38;8.50;;;;;;;13.17;90.77;100993.34;10199410;28;20073;-66
2021/08/18 03:02:38;;;;;;;15.48;9.63;;;;;;;13.16;90.60;100993.66;10163911;28;20509;-66
2021/08/18 03:07:34;;;;;;;14.52;10.23;;;;;;;13.14;90.82;100985.78;10187913;28;20456;-66
2021/08/18 03:12:31;;;;;;;17.35;9.88;;;;;;;13.14;90.92;100977.53;10201340;28;20053;-66
2021/08/18 03:17:27;;;;;;;21.02;10.43;;;;;;;13.12;91.29;100988.03;10158921;28;20078;-67
2021/08/18 03:22:24;;;;;;;16.88;9.82;;;;;;;13.11;90.71;100975.47;10199446;28;20077;-66
2021/08/18 03:27:20;;;;;;;16.83;9.60;;;;;;;13.07;91.15;100979.97;10172193;28;20578;-66
2021/08/18 03:32:17;;;;;;;20.45;10.35;;;;;;;13.05;90.95;100983.06;10197028;28;20503;-65
2021/08/18 03:37:13;;;;;;;18.20;10.75;;;;;;;13.00;91.37;100985.19;10164803;28;20500;-66
2021/08/18 03:42:10;;;;;;;16.25;10.25;;;;;;;12.99;91.63;100978.06;10193998;28;20128;-66
2021/08/18 03:47:07;;;;;;;19.08;10.48;;;;;;;12.94;91.79;100981.00;10177879;28;20080;-67
2021/08/18 03:52:03;;;;;;;18.42;12.15;;;;;;;12.91;91.92;100984.41;10198190;28;20104;-65
2021/08/18 03:57:00;;;;;;;21.92;11.43;;;;;;;12.93;91.94;100990.38;10191651;28;20046;-65
2021/08/18 04:01:56;;;;;;;21.52;12.25;;;;;;;12.95;92.03;100979.84;10184650;28;20050;-66
2021/08/18 04:06:53;;;;;;;17.65;12.68;;;;;;;12.95;91.95;100977.09;10189624;28;20042;-67
2021/08/18 04:11:50;;;;;;;19.83;12.77;;;;;;;12.95;91.86;100971.59;10183563;28;20050;-66
2021/08/18 04:16:46;;;;;;;23.83;12.38;;;;;;;12.91;92.24;100976.16;10181397;28;20062;-66
2021/08/18 04:21:42;;;;;;;21.25;12.70;;;;;;;12.93;92.37;100984.88;10165399;28;20508;-65
2021/08/18 04:26:39;;;;;;;23.65;12.45;;;;;;;12.93;92.55;100984.88;10187241;28;20083;-66
2021/08/18 04:31:36;;;;;;;20.48;12.90;;;;;;;12.97;92.46;100996.78;10187908;28;20100;-66
2021/08/18 04:36:32;;;;;;;22.75;11.40;;;;;;;13.02;92.20;100993.91;10189472;28;20042;-66
2021/08/18 04:41:29;;;;;;;22.20;12.20;;;;;;;13.07;91.99;100992.91;10177853;28;20100;-65
2021/08/18 04:46:27;;;;;;;19.55;11.73;;;;;;;13.07;91.97;100993.72;10184425;28;20500;-65
2021/08/18 04:51:24;;;;;;;19.55;11.85;;;;;;;13.11;92.19;100991.09;10175901;28;20084;-66
2021/08/18 04:56:20;;;;;;;23.45;11.63;;;;;;;13.11;91.60;100983.69;10179361;28;20080;-65
2021/08/18 05:01:17;;;;;;;19.33;12.23;;;;;;;13.16;91.83;100988.16;10197497;28;20056;-66
2021/08/18 05:06:14;;;;;;;20.23;11.98;;;;;;;13.18;91.51;100991.41;10189002;28;20084;-65
2021/08/18 05:11:10;;;;;;;19.00;12.25;;;;;;;13.21;91.91;100977.81;10197457;28;20050;-67
2021/08/18 05:16:07;;;;;;;18.98;12.05;;;;;;;13.22;91.01;100979.44;10188837;28;20069;-66
2021/08/18 05:21:03;;;;;;;17.30;11.05;;;;;;;13.29;91.21;100986.38;10185697;28;20133;-66
2021/08/18 05:26:00;;;;;;;18.23;11.45;;;;;;;13.30;90.84;100979.75;10180126;28;20140;-67
2021/08/18 05:30:56;;;;;;;20.33;12.07;;;;;;;13.30;90.93;100977.00;10178748;28;20046;-66
2021/08/18 05:35:54;;;;;;;16.80;10.32;;;;;;;13.38;90.70;100973.44;10195523;28;20042;-65
2021/08/18 05:40:50;;;;;;;19.50;11.35;;;;;;;13.45;90.59;100976.47;10176804;28;20084;-66
2021/08/18 05:45:47;;;;;;;17.10;10.95;;;;;;;13.45;90.32;100960.78;10195342;28;20530;-65
2021/08/18 05:50:43;;;;;;;16.60;9.80;;;;;;;13.49;90.51;100960.13;10160411;28;20400;-67
2021/08/18 05:55:40;;;;;;;16.38;11.20;;;;;;;13.56;89.93;100949.44;10190198;28;20046;-66
2021/08/18 06:00:36;;;;;;;17.75;10.82;;;;;;;13.61;89.78;100950.03;10195224;28;20050;-65
2021/08/18 06:05:33;;;;;;;16.23;10.52;;;;;;;13.67;89.46;100962.44;10187515;28;20671;-66
2021/08/18 06:10:31;;;;;;;16.20;9.57;;;;;;;13.81;89.35;100947.66;10194874;28;20056;-65
2021/08/18 06:15:31;;;;;;;14.70;9.35;;;;;;;13.86;88.90;100950.19;10161769;28;20409;-65
2021/08/18 06:20:27;;;;;;;14.07;8.10;;;;;;;13.88;89.07;100959.72;10195083;28;20407;-65
2021/08/18 06:25:24;;;;;;;16.73;8.32;;;;;;;13.94;88.58;100960.31;10176648;28;20613;-65
2021/08/18 06:30:20;;;;;;;12.00;7.18;;;;;;;13.94;88.90;100968.56;10192179;28;20496;-64
2021/08/18 06:35:17;;;;;;;10.50;5.88;;;;;;;13.99;88.23;100970.31;10183310;28;20107;-67
2021/08/18 06:40:13;;;;;;;10.32;5.15;;;;;;;13.99;88.39;100971.09;10189190;28;20050;-65
2021/08/18 06:45:11;;;;;;;9.48;6.10;;;;;;;13.90;89.92;100978.59;10187773;28;20523;-67
2021/08/18 06:50:09;;;;;;;10.80;6.13;;;;;;;13.80;91.60;100974.31;10182450;28;20519;-65
2021/08/18 06:55:07;;;;;;;14.15;5.80;;;;;;;13.83;92.18;100978.34;10185706;28;20057;-65
2021/08/18 07:00:05;;;;;;;12.93;5.97;;;;;;;13.74;92.18;100974.84;10182390;28;20101;-65
2021/08/18 07:05:05;;;;;;;9.82;5.53;;;;;;;13.82;92.54;100965.75;10182893;28;20470;-65
2021/08/18 07:10:02;;;;;;;8.57;5.18;;;;;;;13.94;92.74;100968.56;10181561;28;20054;-66
2021/08/18 07:14:58;;;;;;;8.85;4.32;;;;;;;13.95;91.81;100967.44;10187010;28;20042;-65
2021/08/18 07:19:55;;;;;;;9.27;4.88;;;;;;;14.02;91.97;100964.97;10186398;28;20050;-64
2021/08/18 07:24:51;;;;;;;9.43;4.28;;;;;;;14.05;91.14;100964.28;10186189;28;20046;-65
2021/08/18 07:29:48;;;;;;;9.00;4.30;;;;;;;14.08;91.24;100952.59;10178225;28;20203;-65
2021/08/18 07:34:44;;;;;;;7.70;4.30;;;;;;;14.08;90.61;100955.34;10183257;28;20088;-66
2021/08/18 07:39:41;;;;;;;27.92;5.85;;;;;;;14.07;90.96;100973.00;10193698;28;20108;-65
2021/08/18 07:44:38;;;;;;;11.68;5.32;;;;;;;14.14;91.84;100982.66;10191176;28;20047;-65
2021/08/18 07:49:34;;;;;;;9.52;3.80;;;;;;;14.14;91.34;100966.97;10159901;28;20124;-64
2021/08/18 07:54:31;;;;;;;10.15;4.35;;;;;;;14.18;92.37;100972.56;10177714;28;20457;-65
2021/08/18 07:59:28;;;;;;;8.48;3.85;;;;;;;14.18;92.09;100967.09;10199317;28;20045;-66
2021/08/18 08:04:24;;;;;;;8.23;4.05;;;;;;;14.33;91.56;100966.47;10190445;28;20045;-65
2021/08/18 08:09:21;;;;;;;7.72;3.97;;;;;;;14.52;91.33;100971.47;10199087;28;20129;-66
2021/08/18 08:14:17;;;;;;;8.52;4.38;;;;;;;14.68;90.79;100971.69;10183590;28;20492;-65
2021/08/18 08:19:14;;;;;;;7.13;3.28;;;;;;;14.86;89.04;100978.63;10194631;28;20570;-65
2021/08/18 08:24:10;;;;;;;6.95;3.72;;;;;;;14.86;87.22;100981.38;10169727;28;20080;-66
2021/08/18 08:29:07;;;;;;;10.23;3.63;;;;;;;14.92;86.60;100969.00;10191430;28;20081;-65
2021/08/18 08:34:03;;;;;;;9.65;3.35;;;;;;;15.12;86.37;100972.00;10166990;28;20046;-66
2021/08/18 08:39:00;;;;;;;9.48;2.55;;;;;;;15.14;85.25;100965.00;10189477;28;20129;-66
2021/08/18 08:43:57;;;;;;;8.18;3.30;;;;;;;15.11;84.61;100987.72;10196975;28;20042;-66
2021/08/18 08:48:54;;;;;;;10.60;3.50;;;;;;;14.97;84.71;100991.94;10174390;28;20041;-66
2021/08/18 08:53:51;;;;;;;10.57;3.90;;;;;;;14.97;86.25;100980.91;10194177;28;20049;-66
2021/08/18 08:58:48;;;;;;;9.23;3.55;;;;;;;14.92;85.74;100993.78;10161425;28;20100;-66
2021/08/18 09:03:45;;;;;;;7.53;3.03;;;;;;;15.01;86.36;101004.69;10192762;28;20041;-66
2021/08/18 09:08:48;;;;;;;7.03;3.13;;;;;;;15.07;86.28;100997.03;10196701;28;20061;-66
2021/08/18 09:13:52;;;;;;;7.93;3.45;;;;;;;15.28;85.82;100981.19;10173698;28;20577;-66
2021/08/18 09:18:53;;;;;;;10.77;4.30;;;;;;;15.60;85.44;100983.41;10196745;28;20045;-66
2021/08/18 09:23:49;;;;;;;8.50;4.10;;;;;;;15.67;83.49;100987.19;10162555;28;20096;-66
2021/08/18 09:28:47;;;;;;;12.13;4.43;;;;;;;15.76;83.42;100979.63;10196073;28;20484;-66
2021/08/18 09:33:43;;;;;;;6.53;3.67;;;;;;;15.75;82.98;100972.47;10160480;28;20084;-66
2021/08/18 09:38:40;;;;;;;6.90;3.90;;;;;;;15.81;82.49;100986.06;10188457;28;20073;-65
2021/08/18 09:43:36;;;;;;;8.70;3.70;;;;;;;15.88;81.24;100980.75;10193389;28;20078;-66
2021/08/18 09:48:34;;;;;;;9.60;3.13;;;;;;;16.27;80.31;100981.91;10169533;28;20054;-66
2021/08/18 09:53:38;;;;;;;10.73;3.78;;;;;;;16.41;78.90;100984.28;10190970;28;20046;-66
2021/08/18 09:58:37;;;;;;;8.65;3.28;;;;;;;16.36;77.61;100973.47;10193605;28;20138;-66
2021/08/18 10:03:34;;;;;;;10.60;3.90;;;;;;;16.51;78.16;100974.69;10185985;28;20508;-66
2021/08/18 10:08:32;;;;;;;10.73;4.45;;;;;;;16.48;77.26;100970.69;10194806;28;20092;-66
2021/08/18 10:13:29;;;;;;;11.02;4.13;;;;;;;16.51;77.01;100975.50;10169747;28;20046;-66
2021/08/18 10:18:38;;;;;;;10.10;3.60;;;;;;;16.45;76.37;100960.31;10194457;28;20046;-66
2021/08/18 10:24:04;;;;;;;9.02;3.72;;;;;;;16.42;76.93;100983.13;10187379;28;20468;-66
2021/08/18 10:29:06;;;;;;;10.32;3.42;;;;;;;16.33;78.02;100971.44;10181649;28;20054;-66
2021/08/18 10:34:03;;;;;;;12.70;4.20;;;;;;;16.41;78.02;100981.53;10188854;28;20046;-65
2021/08/18 10:39:19;;;;;;;11.40;4.05;;;;;;;16.75;77.94;100962.72;10163523;28;20054;-66
2021/08/18 10:44:47;;;;;;;8.80;4.22;;;;;;;17.02;76.28;100972.13;10183543;28;20038;-66
2021/08/18 10:49:46;;;;;;;10.05;4.28;;;;;;;17.08;75.20;100967.13;10199914;28;20050;-66
2021/08/18 10:54:43;;;;;;;11.45;3.80;;;;;;;17.06;75.20;100977.75;10185915;28;20045;-66
2021/08/18 10:59:51;;;;;;;9.63;4.07;;;;;;;17.25;74.90;100980.63;10201823;28;20046;-66
2021/08/18 11:04:49;;;;;;;13.15;4.68;;;;;;;17.29;73.90;100983.44;10200419;28;20044;-66
2021/08/18 11:09:48;;;;;;;11.10;3.90;;;;;;;17.59;72.78;100972.72;10182524;28;20085;-66
2021/08/18 11:14:45;;;;;;;12.30;4.45;;;;;;;17.49;72.55;100973.28;10195544;28;20042;-66
2021/08/18 11:19:48;;;;;;;13.35;4.55;;;;;;;17.37;72.96;100969.47;10199359;28;20106;-66
2021/08/18 11:24:44;;;;;;;;;;;;;;;17.30;73.43;100966.53;10200741;28;20042;-66
2021/08/18 11:29:41;;;;;;;12.38;4.35;;;;;;;17.32;73.96;100963.41;10193988;28;20316;-66
2021/08/18 11:34:40;;;;;;;9.73;4.03;;;;;;;17.19;73.30;100973.75;10192491;28;20096;-66
2021/08/18 11:39:46;;;;;;;12.13;4.63;;;;;;;17.19;73.16;100962.69;10190511;28;20508;-66
2021/08/18 11:44:44;;;;;;;12.40;4.63;;;;;;;17.16;73.04;100977.22;10194109;28;20053;-66
2021/08/18 11:49:46;;;;;;;15.60;5.05;;;;;;;17.26;73.11;100971.16;10199936;28;20057;-66
2021/08/18 11:54:51;;;;;;;9.55;4.55;;;;;;;17.32;72.51;100972.50;10187721;28;20053;-66
2021/08/18 11:59:52;;;;;;;12.13;3.85;;;;;;;17.78;71.13;100975.56;10198660;28;20081;-66
2021/08/18 12:04:49;;;;;;;30.95;6.13;;;;;;;17.65;70.65;100965.75;10193146;28;20046;-66
2021/08/18 12:10:07;;;;;;;11.60;4.03;;;;;;;17.80;72.18;100959.41;10198973;28;20054;-66
2021/08/18 12:15:15;;;;;;;16.73;8.27;;;;;;;17.64;71.69;100959.44;10187143;28;20583;-66
2021/08/18 12:20:30;;;;;;;9.27;4.10;;;;;;;17.51;72.58;100949.66;10175887;28;20081;-66
2021/08/18 12:25:32;;;;;;;15.10;4.57;;;;;;;17.43;73.37;100953.41;10189458;28;20472;-66
2021/08/18 12:30:28;;;;;;;8.38;3.63;;;;;;;17.48;72.77;100949.59;10192859;28;20449;-66
2021/08/18 12:35:25;;;;;;;8.93;4.32;;;;;;;17.65;71.42;100943.66;10198154;28;20165;-67
2021/08/18 12:40:27;;;;;;;10.70;3.50;;;;;;;18.01;70.07;100958.28;10171066;28;20104;-66
2021/08/18 12:45:34;;;;;;;9.40;3.25;;;;;;;18.48;68.57;100957.28;10184218;28;20628;-66
2021/08/18 12:50:39;;;;;;;7.47;2.70;;;;;;;18.45;67.16;100947.75;10186761;28;20056;-66
2021/08/18 12:55:39;;;;;;;5.82;2.83;;;;;;;18.43;67.36;100954.81;10191742;28;20462;-66
2021/08/18 13:00:36;;;;;;;7.30;3.00;;;;;;;18.22;68.08;100953.22;10190222;28;20108;-66
2021/08/18 13:05:33;;;;;;;6.20;2.78;;;;;;;17.96;70.49;100947.50;10183424;28;20046;-64
2021/08/18 13:10:29;;;;;;;7.32;2.72;;;;;;;17.78;71.35;100953.44;10177952;28;20066;-66
2021/08/18 13:15:26;;;;;;;6.28;2.53;;;;;;;17.82;71.30;100951.59;10180700;28;20046;-68
2021/08/18 13:20:23;;;;;;;5.32;2.42;;;;;;;18.17;71.17;100947.97;10183997;28;20046;-66
2021/08/18 13:25:19;;;;;;;5.68;2.38;;;;;;;18.26;70.71;100956.84;10196356;28;20088;-65
2021/08/18 13:30:16;;;;;;;4.60;2.35;;;;;;;18.36;71.19;100943.59;10177519;28;20081;-67
2021/08/18 13:35:12;;;;;;;4.95;2.40;;;;;;;18.25;71.24;100948.91;10187596;28;20082;-67
2021/08/18 13:40:09;;;;;;;7.50;2.58;;;;;;;18.15;71.32;100953.06;10174550;28;20084;-67
2021/08/18 13:45:06;;;;;;;6.93;2.30;;;;;;;18.25;70.47;100948.91;10181009;28;20082;-68
2021/08/18 13:50:05;;;;;;;5.82;2.50;;;;;;;18.26;70.33;100956.84;10173228;28;20199;-67
2021/08/18 13:55:01;;;;;;;6.10;2.83;;;;;;;18.22;71.02;100938.59;10178872;28;20082;-68
2021/08/18 13:59:57;;;;;;;7.25;2.42;;;;;;;18.19;69.92;100934.56;10157158;28;20046;-67
2021/08/18 14:04:54;;;;;;;7.07;2.83;;;;;;;18.21;71.19;100948.81;10170333;28;20130;-67
2021/08/18 14:09:51;;;;;;;6.90;2.47;;;;;;;18.42;70.15;100936.59;10176222;28;20081;-66
2021/08/18 14:14:47;;;;;;;4.97;2.80;;;;;;;18.44;69.66;100939.78;10194329;28;20121;-66
2021/08/18 14:19:44;;;;;;;8.55;3.33;;;;;;;18.59;69.85;100935.31;10167633;28;20046;-67
2021/08/18 14:24:40;;;;;;;4.50;2.05;;;;;;;18.52;70.14;100933.22;10199819;28;20108;-67
2021/08/18 14:29:37;;;;;;;6.75;2.28;;;;;;;18.49;69.53;100936.72;10202727;28;20090;-67
2021/08/18 14:34:33;;;;;;;8.73;3.00;;;;;;;18.38;70.28;100941.25;10197923;28;20058;-67
2021/08/18 14:39:30;;;;;;;6.45;2.65;;;;;;;18.27;70.81;100941.06;10202539;28;20042;-67
2021/08/18 14:44:28;;;;;;;7.07;2.80;;;;;;;18.21;72.08;100948.81;10197956;28;20046;-67
2021/08/18 14:49:25;;;;;;;8.70;3.13;;;;;;;18.11;72.67;100938.34;10202088;28;20053;-67
2021/08/18 14:54:21;;;;;;;7.65;3.95;;;;;;;17.98;74.00;100923.03;10193740;28;20450;-66
2021/08/18 14:59:18;;;;;;;9.43;3.90;;;;;;;17.87;74.96;100937.47;10201718;28;20054;-67
2021/08/18 15:04:15;;;;;;;9.55;3.40;;;;;;;17.78;75.40;100942.38;10192516;28;20084;-68
2021/08/18 15:09:11;;;;;;;6.60;3.58;;;;;;;17.67;76.44;100941.31;10201207;28;20116;-67
2021/08/18 15:14:08;;;;;;;11.73;4.80;;;;;;;17.64;77.43;100947.59;10185241;28;20092;-68
2021/08/18 15:19:04;;;;;;;8.35;3.72;;;;;;;17.48;79.26;100952.34;10200922;28;20054;-67
2021/08/18 15:24:09;;;;;;;7.55;3.78;;;;;;;17.47;80.10;100932.16;10197791;28;20096;-65
2021/08/18 15:29:08;;;;;;;8.27;4.60;;;;;;;17.53;80.32;100929.94;10193558;28;20078;-66
2021/08/18 15:34:05;;;;;;;7.35;3.80;;;;;;;17.62;79.84;100927.78;10194554;28;20630;-67
2021/08/18 15:39:02;;;;;;;8.43;4.47;;;;;;;17.69;78.78;100927.94;10182591;28;20535;-67
2021/08/18 15:43:58;;;;;;;8.25;4.45;;;;;;;17.69;79.27;100933.47;10192803;28;20133;-67
2021/08/18 15:48:54;;;;;;;10.75;3.83;;;;;;;17.76;78.08;100921.78;10176406;28;20081;-67
2021/08/18 15:53:51;;;;;;;7.20;4.25;;;;;;;17.81;77.46;100929.81;10190275;28;20084;-67
2021/08/18 15:58:48;;;;;;;6.10;3.83;;;;;;;17.74;77.62;100924.09;10170372;28;20046;-67
2021/08/18 16:03:44;;;;;;;7.50;4.35;;;;;;;17.79;77.58;100905.25;10185350;28;20058;-67
2021/08/18 16:08:41;;;;;;;8.25;4.60;;;;;;;17.95;77.62;100915.47;10199349;28;20719;-67
2021/08/18 16:13:37;;;;;;;7.55;4.40;;;;;;;17.80;76.01;100906.03;10190534;28;20137;-67
2021/08/18 16:18:35;;;;;;;10.55;3.88;;;;;;;17.78;77.08;100914.72;10198612;28;20539;-67
2021/08/18 16:23:31;;;;;;;9.43;4.38;;;;;;;17.70;78.11;100910.19;10193432;28;20046;-67
2021/08/18 16:28:28;;;;;;;8.98;4.53;;;;;;;17.63;78.48;100912.78;10198095;28;20093;-67
2021/08/18 16:33:25;;;;;;;12.85;5.35;;;;;;;17.59;79.47;100901.66;10186801;28;20089;-67
2021/08/18 16:38:21;;;;;;;8.68;5.38;;;;;;;17.53;80.42;100905.06;10194248;28;20050;-66
2021/08/18 16:43:18;;;;;;;11.88;6.20;;;;;;;17.40;81.17;100907.13;10177299;28;20108;-67
2021/08/18 16:48:14;;;;;;;10.20;6.10;;;;;;;17.33;81.69;100905.00;10193586;28;20103;-67
2021/08/18 16:53:11;;;;;;;14.23;7.53;;;;;;;16.99;84.92;100893.56;10197527;28;20471;-67
2021/08/18 16:58:09;;;;;;;12.98;8.20;;;;;;;16.74;86.76;100900.38;10190696;28;20566;-67
2021/08/18 17:03:05;;;;;;;13.95;8.63;;;;;;;16.53;87.64;100895.91;10197046;28;20057;-67
2021/08/18 17:08:02;;;;;;;14.43;9.38;;;;;;;16.46;88.48;100901.25;10186164;28;20062;-67
2021/08/18 17:12:58;;;;;;;16.00;10.40;;;;;;;16.39;87.77;100907.38;10192976;28;20133;-67
2021/08/18 17:18:00;;;;;;;18.88;10.18;;;;;;;16.41;87.74;100896.78;10169214;28;20046;-67
2021/08/18 17:23:00;;;;;;;15.95;9.63;;;;;;;16.41;88.04;100895.97;10189702;28;20077;-67
2021/08/18 17:27:57;;;;;;;14.02;9.68;;;;;;;16.44;87.93;100889.75;10196074;28;20089;-67
2021/08/18 17:32:53;;;;;;;14.25;9.30;;;;;;;16.48;88.28;100893.41;10183432;28;20100;-67
2021/08/18 17:37:51;;;;;;;15.73;9.80;;;;;;;16.49;88.28;100880.41;10193763;28;20566;-67
2021/08/18 17:42:52;;;;;;;12.70;9.10;;;;;;;16.54;88.06;100878.16;10164249;28;20423;-67
2021/08/18 17:47:49;;;;;;;14.88;9.63;;;;;;;16.53;87.71;100875.78;10186472;28;20116;-67
2021/08/18 17:52:46;;;;;;;13.55;8.85;;;;;;;16.53;88.02;100879.34;10195648;28;20054;-67
2021/08/18 17:57:42;;;;;;;13.52;8.88;;;;;;;16.55;87.26;100879.78;10163851;28;20049;-67
2021/08/18 18:02:40;;;;;;;16.55;8.85;;;;;;;16.51;87.00;100865.09;10194136;28;20530;-67
2021/08/18 18:07:39;;;;;;;15.68;8.68;;;;;;;16.48;86.79;100876.84;10191472;28;20046;-67
2021/08/18 18:12:37;;;;;;;12.75;8.95;;;;;;;16.45;86.64;100883.06;10177784;28;20111;-67
2021/08/18 18:17:34;;;;;;;14.35;8.05;;;;;;;16.42;86.36;100878.25;10194472;28;20552;-67
2021/08/18 18:22:31;;;;;;;14.07;7.55;;;;;;;16.45;85.91;100866.50;10169098;28;20054;-67
2021/08/18 18:27:27;;;;;;;14.40;8.45;;;;;;;16.46;85.65;100879.16;10190453;28;20132;-68
2021/08/18 18:32:24;;;;;;;11.70;6.93;;;;;;;16.45;85.74;100880.28;10193900;28;20042;-66
2021/08/18 18:37:22;;;;;;;12.18;6.55;;;;;;;16.48;85.43;100871.34;10182886;28;20092;-66
2021/08/18 18:42:18;;;;;;;14.30;6.65;;;;;;;16.47;84.98;100889.03;10191442;28;20419;-68
2021/08/18 18:47:15;;;;;;;16.23;6.72;;;;;;;16.49;84.54;100878.44;10172498;28;20042;-66
2021/08/18 18:52:11;;;;;;;11.40;7.15;;;;;;;16.49;84.21;100883.97;10189205;28;20479;-66
2021/08/18 18:57:08;;;;;;;13.40;7.35;;;;;;;16.48;84.71;100873.28;10160740;28;20043;-65
2021/08/18 19:02:04;;;;;;;10.40;6.15;;;;;;;16.48;84.70;100882.38;10185456;28;20455;-66
2021/08/18 19:07:01;;;;;;;10.68;5.75;;;;;;;16.51;84.00;100880.84;10194845;28;20071;-66
2021/08/18 19:11:58;;;;;;;15.70;7.93;;;;;;;16.49;83.15;100878.44;10194104;28;20154;-67
2021/08/18 19:16:55;;;;;;;12.15;7.15;;;;;;;16.47;82.54;100879.94;10174612;28;20420;-67
2021/08/18 19:21:51;;;;;;;10.95;6.57;;;;;;;16.48;82.74;100876.06;10175787;28;20046;-67
2021/08/18 19:26:48;;;;;;;11.23;6.30;;;;;;;16.42;82.50;100878.25;10191018;28;20038;-67
2021/08/18 19:31:44;;;;;;;11.18;6.60;;;;;;;16.42;82.85;100872.72;10175137;28;20093;-67
2021/08/18 19:36:41;;;;;;;13.07;6.03;;;;;;;16.40;82.24;100864.81;10189543;28;20055;-67
2021/08/18 19:41:37;;;;;;;9.40;5.53;;;;;;;16.36;82.10;100857.59;10196880;28;20132;-67
2021/08/18 19:46:34;;;;;;;11.98;6.05;;;;;;;16.29;79.55;100862.91;10199556;28;20061;-68
2021/08/18 19:51:32;;;;;;;8.48;4.95;;;;;;;16.30;79.63;100870.84;10191592;28;20115;-67
2021/08/18 19:56:28;;;;;;;9.23;5.03;;;;;;;16.31;79.59;100864.16;10199239;28;20073;-68
2021/08/18 20:01:25;;;;;;;10.43;5.65;;;;;;;16.32;79.23;100865.00;10188258;28;20128;-68
2021/08/18 20:06:21;;;;;;;10.45;5.65;;;;;;;16.35;78.91;100856.00;10192166;28;20039;-67
2021/08/18 20:11:18;;;;;;;6.80;4.93;;;;;;;16.35;78.90;100856.00;10176120;28;20100;-67
2021/08/18 20:16:15;;;;;;;9.35;5.43;;;;;;;16.36;79.34;100846.53;10190919;28;20038;-67
2021/08/18 20:21:11;;;;;;;11.55;5.88;;;;;;;16.37;79.70;100853.69;10198713;28;20042;-67
2021/08/18 20:26:08;;;;;;;8.95;5.22;;;;;;;16.33;79.96;100853.56;10183930;28;20042;-66
2021/08/18 20:31:05;;;;;;;8.38;5.30;;;;;;;16.34;80.28;100849.69;10192091;28;20188;-66
2021/08/18 20:36:20;;;;;;;13.35;7.15;;;;;;;16.33;80.66;100852.78;10198537;28;20092;-67
2021/08/18 20:41:16;;;;;;;9.27;6.18;;;;;;;16.33;80.98;100848.06;10198164;28;20049;-65
2021/08/18 20:46:13;;;;;;;15.30;7.15;;;;;;;16.30;81.06;100847.97;10188223;28;20085;-66
2021/08/18 20:51:09;;;;;;;9.50;5.97;;;;;;;16.32;81.38;100845.66;10158020;28;20054;-68
2021/08/18 20:56:06;;;;;;;10.68;7.22;;;;;;;16.30;81.62;100850.75;10180951;28;20108;-65
2021/08/18 21:01:02;;;;;;;10.77;6.72;;;;;;;16.27;81.79;100843.16;10197700;28;20080;-65
2021/08/18 21:05:59;;;;;;;11.63;7.35;;;;;;;16.27;82.02;100854.19;10188219;28;20073;-66
2021/08/18 21:10:55;;;;;;;15.57;8.93;;;;;;;16.19;81.90;100848.47;10197507;28;20566;-66
2021/08/18 21:15:52;;;;;;;12.27;7.28;;;;;;;16.17;82.52;100845.25;10179782;28;20074;-66
2021/08/18 21:20:49;;;;;;;13.73;7.70;;;;;;;16.16;82.59;100846.44;10196996;28;20046;-66
2021/08/18 21:25:45;;;;;;;12.10;8.30;;;;;;;16.17;82.42;100836.19;10181107;28;20046;-66
2021/08/18 21:30:42;;;;;;;16.02;8.80;;;;;;;16.14;82.15;100840.47;10195355;28;20084;-66
2021/08/18 21:35:38;;;;;;;14.27;8.90;;;;;;;16.11;82.31;100841.19;10177151;28;20125;-66
2021/08/18 21:40:35;;;;;;;12.95;8.25;;;;;;;16.11;82.50;100841.19;10192343;28;20042;-66
2021/08/18 21:45:31;;;;;;;14.25;8.75;;;;;;;16.11;82.18;100837.63;10193978;28;20076;-66
2021/08/18 21:50:28;;;;;;;12.43;8.45;;;;;;;16.08;82.12;100841.88;10195719;28;20069;-66
2021/08/18 21:55:24;;;;;;;15.82;9.23;;;;;;;16.10;82.04;100833.25;10195511;28;20096;-66
2021/08/18 22:00:21;;;;;;;12.20;8.13;;;;;;;16.04;82.16;100829.94;10194230;28;20077;-66
2021/08/18 22:05:19;;;;;;;11.50;8.45;;;;;;;15.98;82.43;100836.88;10195202;28;20057;-66
2021/08/18 22:10:15;;;;;;;12.95;8.60;;;;;;;15.97;82.63;100825.03;10190649;28;20042;-66
2021/08/18 22:15:12;;;;;;;13.30;8.65;;;;;;;15.96;82.76;100833.66;10186351;28;20061;-65
2021/08/18 22:20:10;;;;;;;14.68;9.35;;;;;;;15.95;83.65;100826.53;10171113;28;20097;-66
2021/08/18 22:25:07;;;;;;;12.68;8.25;;;;;;;15.80;84.66;100836.34;10169307;28;20084;-66
2021/08/18 22:30:04;;;;;;;16.05;9.80;;;;;;;15.66;85.53;100831.19;10184038;28;20522;-66
2021/08/18 22:35:01;;;;;;;19.35;11.48;;;;;;;15.57;86.53;100825.03;10192519;28;20136;-66
2021/08/18 22:39:57;;;;;;;16.98;11.20;;;;;;;15.54;86.96;100829.28;10195683;28;20073;-66